Time;durP1;ratioP1;P1;durP2;ratioP2;P2;SDS_P1;SDS_P2;PMS_P1;PMS_P2;Temp;Humidity;BMP_temperature;BMP_pressure;BME280_temperature;BME280_humidity;BME280_pressure;Samples;Min_cycle;Max_cycle;Signal;HPM_P1;HPM_P2
2022/01/15 00:00:30;;;;;;;611.97;330.10;;;-0.60;99.90;;;;;;5058497;28;20105;-78
2022/01/15 00:02:57;;;;;;;576.47;302.50;;;-0.60;99.90;;;;;;5060907;28;20057;-78
2022/01/15 00:05:25;;;;;;;570.95;296.60;;;-0.60;99.90;;;;;;5075106;28;20059;-79
2022/01/15 00:07:52;;;;;;;544.53;283.02;;;-0.70;99.90;;;;;;5079769;28;20032;-79
2022/01/15 00:10:26;;;;;;;520.28;264.48;;;-0.70;99.90;;;;;;5075644;28;20041;-78
2022/01/15 00:12:54;;;;;;;559.47;275.48;;;-0.70;99.90;;;;;;5082895;28;20036;-79
2022/01/15 00:15:26;;;;;;;519.28;262.63;;;-0.80;99.90;;;;;;5085350;28;20121;-79
2022/01/15 00:17:58;;;;;;;567.13;292.60;;;-0.70;99.90;;;;;;5093740;28;20047;-79
2022/01/15 00:20:26;;;;;;;573.72;295.50;;;-0.70;99.90;;;;;;5087283;28;20048;-78
2022/01/15 00:22:55;;;;;;;564.92;290.65;;;-0.80;99.90;;;;;;5062567;28;20044;-79
2022/01/15 00:25:26;;;;;;;527.63;281.35;;;-0.90;99.90;;;;;;5075046;28;20050;-79
2022/01/15 00:27:55;;;;;;;525.88;277.30;;;-0.90;99.90;;;;;;5075524;28;20041;-79
2022/01/15 00:30:23;;;;;;;490.73;262.85;;;-0.90;99.90;;;;;;5057437;28;20058;-77
2022/01/15 00:32:52;;;;;;;502.38;268.83;;;-0.90;99.90;;;;;;5074693;28;20048;-77
2022/01/15 00:35:21;;;;;;;503.00;267.05;;;-1.00;99.90;;;;;;5090395;28;20078;-78
2022/01/15 00:37:49;;;;;;;530.83;278.42;;;-1.00;99.90;;;;;;5057743;28;20041;-78
2022/01/15 00:40:19;;;;;;;540.25;280.80;;;-0.90;99.90;;;;;;5074884;28;20041;-79
2022/01/15 00:42:48;;;;;;;532.88;280.15;;;-0.90;99.90;;;;;;5090891;28;20507;-80
2022/01/15 00:45:21;;;;;;;557.95;291.48;;;-0.90;99.90;;;;;;5076978;28;20072;-77
2022/01/15 00:47:49;;;;;;;564.00;297.98;;;-0.90;99.90;;;;;;5089534;28;20048;-78
2022/01/15 00:50:17;;;;;;;496.10;264.20;;;-0.90;99.90;;;;;;5079494;28;20044;-79
2022/01/15 00:52:44;;;;;;;494.27;261.55;;;-0.90;99.90;;;;;;5090939;28;20044;-78
2022/01/15 00:55:14;;;;;;;513.38;271.23;;;-0.90;99.90;;;;;;5075167;28;20098;-79
2022/01/15 00:57:41;;;;;;;504.02;269.65;;;-0.90;99.90;;;;;;5076163;28;20072;-79
2022/01/15 01:00:14;;;;;;;482.23;260.20;;;-0.90;99.90;;;;;;5074686;28;20070;-79
2022/01/15 01:02:42;;;;;;;495.40;266.67;;;-0.90;99.90;;;;;;5072796;28;20770;-79
2022/01/15 01:05:11;;;;;;;508.23;266.80;;;-0.90;99.90;;;;;;5072474;28;20044;-79
2022/01/15 01:07:39;;;;;;;490.27;258.48;;;-0.90;99.90;;;;;;5056703;28;20143;-78
2022/01/15 01:10:22;;;;;;;390.30;208.65;;;-1.00;99.90;;;;;;5075115;28;20048;-78
2022/01/15 01:13:15;;;;;;;396.60;203.50;;;-1.00;99.90;;;;;;5070241;28;20032;-78
2022/01/15 01:22:13;;;;;;;394.38;212.07;;;-1.00;99.90;;;;;;5094762;28;19915;-79
2022/01/15 01:24:30;;;;;;;413.58;219.70;;;-0.90;99.90;;;;;;5093886;28;20040;-78
2022/01/15 01:27:01;;;;;;;402.13;213.88;;;-0.90;99.90;;;;;;5081944;28;20044;-78
2022/01/15 01:29:37;;;;;;;435.75;227.05;;;-0.80;99.90;;;;;;5060947;28;20508;-79
2022/01/15 01:32:12;;;;;;;424.63;217.43;;;-0.90;99.90;;;;;;5069303;28;20075;-77
2022/01/15 01:34:42;;;;;;;407.98;211.63;;;-0.90;99.90;;;;;;5079312;28;20097;-77
2022/01/15 01:37:15;;;;;;;421.30;219.38;;;-0.90;99.90;;;;;;5085460;28;20054;-79
2022/01/15 01:39:46;;;;;;;433.55;227.40;;;-0.90;99.90;;;;;;5114498;28;20070;-79
2022/01/15 01:42:33;;;;;;;440.75;227.30;;;-0.90;99.90;;;;;;5098098;28;20044;-78
2022/01/15 01:45:05;;;;;;;446.08;231.57;;;-0.80;99.90;;;;;;5114439;28;20052;-78
2022/01/15 01:47:40;;;;;;;464.45;236.25;;;-0.90;99.90;;;;;;5098600;28;20044;-78
2022/01/15 01:50:11;;;;;;;456.08;235.65;;;-1.00;99.90;;;;;;5107968;28;20087;-78
2022/01/15 01:52:39;;;;;;;435.50;228.75;;;-1.00;99.90;;;;;;5097038;28;20071;-77
2022/01/15 01:55:08;;;;;;;422.67;220.63;;;-1.10;99.90;;;;;;5060314;28;20071;-78
2022/01/15 01:57:35;;;;;;;410.48;218.25;;;-1.20;99.90;;;;;;5079131;28;20040;-77
2022/01/15 02:00:06;;;;;;;390.85;209.05;;;-1.30;99.90;;;;;;5078199;28;20048;-77
2022/01/15 02:02:46;;;;;;;392.58;206.02;;;-1.30;99.90;;;;;;5072951;28;20043;-80
2022/01/15 02:05:13;;;;;;;381.95;201.75;;;-1.20;99.90;;;;;;5076228;28;20071;-77
2022/01/15 02:07:43;;;;;;;368.48;192.98;;;-1.20;99.90;;;;;;5086535;28;20044;-78
2022/01/15 02:10:13;;;;;;;356.17;184.43;;;-1.20;99.90;;;;;;5058135;28;20094;-79
2022/01/15 02:12:41;;;;;;;378.58;197.57;;;-1.20;99.90;;;;;;5076731;28;20446;-76
2022/01/15 02:15:10;;;;;;;349.48;183.45;;;-1.20;99.90;;;;;;5082086;28;20040;-76
2022/01/15 02:17:38;;;;;;;317.83;162.77;;;-1.30;99.90;;;;;;5066570;28;20049;-77
2022/01/15 02:20:48;;;;;;;335.02;170.30;;;-1.30;99.90;;;;;;5076368;28;20045;-77
2022/01/15 02:23:34;;;;;;;355.73;188.57;;;-1.30;99.90;;;;;;5087929;28;20487;-78
2022/01/15 02:26:04;;;;;;;374.52;201.07;;;-1.20;99.90;;;;;;5092247;28;20102;-78
2022/01/15 02:28:33;;;;;;;377.13;197.45;;;-1.20;99.90;;;;;;5058506;28;20049;-79
2022/01/15 02:31:02;;;;;;;319.60;165.50;;;-1.20;99.90;;;;;;5058594;28;20094;-78
2022/01/15 02:33:30;;;;;;;327.08;168.75;;;-1.10;99.90;;;;;;5058591;28;20044;-77
2022/01/15 02:36:00;;;;;;;337.63;174.07;;;-1.10;99.90;;;;;;5076362;28;20067;-79
2022/01/15 02:38:28;;;;;;;336.00;174.10;;;-1.10;99.90;;;;;;5091864;28;20123;-79
2022/01/15 02:40:55;;;;;;;341.50;176.43;;;-1.20;99.90;;;;;;5096722;28;20119;-78
2022/01/15 02:43:29;;;;;;;343.85;175.32;;;-1.30;99.90;;;;;;5096966;28;20042;-80
2022/01/15 02:45:58;;;;;;;338.27;176.13;;;-1.40;99.90;;;;;;5061449;28;20045;-79
2022/01/15 02:48:27;;;;;;;349.40;184.27;;;-1.40;99.90;;;;;;5059561;28;20053;-78
2022/01/15 02:50:56;;;;;;;331.77;179.77;;;-1.50;99.90;;;;;;5076283;28;20045;-78
2022/01/15 02:53:24;;;;;;;334.30;176.10;;;-1.40;99.90;;;;;;5056286;28;20051;-80
2022/01/15 02:55:53;;;;;;;331.42;176.18;;;-1.40;99.90;;;;;;5057415;28;20048;-80
2022/01/15 02:58:23;;;;;;;341.25;174.55;;;-1.40;99.90;;;;;;5077944;28;20066;-79
2022/01/15 03:00:51;;;;;;;332.85;174.93;;;-1.40;99.90;;;;;;5059793;28;20068;-79
2022/01/15 03:03:19;;;;;;;324.25;173.57;;;-1.40;99.90;;;;;;5079967;28;20059;-79
2022/01/15 03:05:46;;;;;;;320.70;168.27;;;-1.40;99.90;;;;;;5089311;28;20080;-79
2022/01/15 03:08:14;;;;;;;310.58;162.65;;;-1.40;99.90;;;;;;5073993;28;20045;-78
2022/01/15 03:10:43;;;;;;;302.05;162.48;;;-1.50;99.90;;;;;;5067859;28;20045;-78
2022/01/15 03:13:12;;;;;;;299.33;157.15;;;-1.50;99.90;;;;;;5076096;28;20583;-78
2022/01/15 03:15:40;;;;;;;295.35;153.77;;;-1.50;99.90;;;;;;5075311;28;20044;-77
2022/01/15 03:18:07;;;;;;;305.02;159.85;;;-1.50;99.90;;;;;;5075881;28;20044;-79
2022/01/15 03:20:35;;;;;;;292.67;149.73;;;-1.50;99.90;;;;;;5076786;28;20071;-78
2022/01/15 03:23:03;;;;;;;296.60;149.93;;;-1.40;99.90;;;;;;5057125;28;20072;-79
2022/01/15 03:25:31;;;;;;;313.70;160.65;;;-1.40;99.90;;;;;;5075168;28;20063;-79
2022/01/15 03:28:00;;;;;;;297.85;152.20;;;-1.50;99.90;;;;;;5075996;28;20477;-77
2022/01/15 03:30:28;;;;;;;303.88;160.68;;;-1.60;99.90;;;;;;5075809;28;20499;-77
2022/01/15 03:32:55;;;;;;;295.67;155.82;;;-1.50;99.90;;;;;;5076282;28;20497;-78
2022/01/15 03:35:22;;;;;;;307.63;163.30;;;-1.60;99.90;;;;;;5058188;28;20514;-79
2022/01/15 03:37:50;;;;;;;297.20;156.93;;;-1.60;99.90;;;;;;5075754;28;20052;-79
2022/01/15 03:40:17;;;;;;;283.83;151.27;;;-1.70;99.90;;;;;;5056925;28;20490;-79
2022/01/15 03:42:45;;;;;;;279.90;152.23;;;-1.70;99.90;;;;;;5075679;28;20521;-76
2022/01/15 03:45:16;;;;;;;265.00;143.52;;;-1.70;99.90;;;;;;5057091;28;20048;-77
2022/01/15 03:47:45;;;;;;;268.90;142.50;;;-1.70;99.90;;;;;;5075403;28;20048;-79
2022/01/15 03:50:14;;;;;;;282.52;148.57;;;-1.70;99.90;;;;;;5056806;28;20053;-77
2022/01/15 03:52:42;;;;;;;276.80;146.40;;;-1.70;99.90;;;;;;5076444;28;20041;-80
2022/01/15 03:55:11;;;;;;;286.30;154.10;;;-1.60;99.90;;;;;;5075854;28;20127;-80
2022/01/15 03:57:39;;;;;;;285.70;154.77;;;-1.70;99.90;;;;;;5063572;28;20052;-77
2022/01/15 04:00:08;;;;;;;289.35;157.35;;;-1.70;99.90;;;;;;5092550;28;20048;-77
2022/01/15 04:02:41;;;;;;;286.92;152.98;;;-1.80;99.90;;;;;;5075464;28;20044;-79
2022/01/15 04:05:10;;;;;;;295.55;155.98;;;-1.80;99.90;;;;;;5074596;28;20055;-78
2022/01/15 04:07:37;;;;;;;282.42;149.70;;;-1.80;99.90;;;;;;5074969;28;20132;-79
2022/01/15 04:10:06;;;;;;;285.23;150.20;;;-1.80;99.90;;;;;;5057650;28;20135;-78
2022/01/15 04:12:34;;;;;;;270.67;143.55;;;-1.70;99.90;;;;;;5075091;28;20033;-80
2022/01/15 04:15:01;;;;;;;279.60;148.52;;;-1.80;99.90;;;;;;5075233;28;20037;-80
2022/01/15 04:17:29;;;;;;;272.48;146.48;;;-1.70;99.90;;;;;;5040917;28;20053;-79
2022/01/15 04:19:58;;;;;;;281.35;148.00;;;-1.70;99.90;;;;;;5056795;28;20072;-78
2022/01/15 04:22:26;;;;;;;277.13;140.05;;;-1.70;99.90;;;;;;5038894;28;20404;-79
2022/01/15 04:24:53;;;;;;;261.58;136.73;;;-1.70;99.90;;;;;;5065770;28;20098;-79
2022/01/15 04:27:22;;;;;;;254.60;132.48;;;-1.60;99.90;;;;;;5076559;28;20137;-78
2022/01/15 04:29:50;;;;;;;248.70;129.63;;;-1.60;99.90;;;;;;5058557;28;20113;-80
2022/01/15 04:32:18;;;;;;;231.40;123.60;;;-1.60;99.90;;;;;;5077881;28;20033;-80
2022/01/15 04:34:47;;;;;;;224.20;116.57;;;-1.60;99.90;;;;;;5061127;28;20051;-78
2022/01/15 04:37:22;;;;;;;224.68;114.97;;;-1.70;99.90;;;;;;5058660;28;20414;-78
2022/01/15 04:39:50;;;;;;;241.18;125.97;;;-1.70;99.90;;;;;;5059425;28;20117;-79
2022/01/15 04:42:22;;;;;;;232.93;122.75;;;-1.80;99.90;;;;;;5059078;28;20108;-79
2022/01/15 04:44:50;;;;;;;242.93;131.20;;;-1.90;99.90;;;;;;5075377;28;20403;-80
2022/01/15 04:47:17;;;;;;;246.57;131.45;;;-1.90;99.90;;;;;;5075328;28;20052;-78
2022/01/15 04:49:45;;;;;;;247.60;131.10;;;-1.90;99.90;;;;;;5057623;28;20052;-79
2022/01/15 04:52:12;;;;;;;224.77;121.95;;;-1.90;99.90;;;;;;5057508;28;20404;-79
2022/01/15 04:54:41;;;;;;;253.13;130.25;;;-1.90;99.90;;;;;;5075707;28;20058;-80
2022/01/15 04:57:09;;;;;;;233.10;125.75;;;-1.90;99.90;;;;;;5076211;28;20101;-79
2022/01/15 04:59:36;;;;;;;243.57;128.60;;;-1.90;99.90;;;;;;5070846;28;20045;-78
2022/01/15 05:02:04;;;;;;;249.73;133.30;;;-1.90;99.90;;;;;;5093631;28;20141;-77
2022/01/15 05:04:31;;;;;;;252.00;133.35;;;-1.90;99.90;;;;;;5099058;28;20092;-79
2022/01/15 05:06:59;;;;;;;254.82;137.00;;;-1.90;99.90;;;;;;5100600;28;20029;-76
2022/01/15 05:09:27;;;;;;;264.30;139.85;;;-1.90;99.90;;;;;;5100118;28;20067;-78
2022/01/15 05:12:01;;;;;;;266.35;144.02;;;-1.80;99.90;;;;;;5079697;28;20399;-77
2022/01/15 05:14:29;;;;;;;263.95;142.90;;;-1.80;99.90;;;;;;5060170;28;20048;-79
2022/01/15 05:16:57;;;;;;;242.07;130.88;;;-1.80;99.90;;;;;;5078952;28;20047;-77
2022/01/15 05:19:24;;;;;;;221.75;120.35;;;-1.70;99.90;;;;;;5080279;28;20479;-78
2022/01/15 05:21:54;;;;;;;220.68;116.75;;;-1.70;99.90;;;;;;5060358;28;20036;-77
2022/01/15 05:24:22;;;;;;;213.27;115.78;;;-1.70;99.90;;;;;;5078890;28;20043;-78
2022/01/15 05:26:50;;;;;;;211.52;115.95;;;-1.60;99.90;;;;;;5078282;28;20044;-78
2022/01/15 05:29:19;;;;;;;226.90;118.30;;;-1.50;99.90;;;;;;5078734;28;20045;-78
2022/01/15 05:31:46;;;;;;;234.80;125.85;;;-1.50;99.90;;;;;;5078801;28;20394;-78
2022/01/15 05:34:14;;;;;;;240.82;127.80;;;-1.60;99.90;;;;;;5077630;28;20044;-79
2022/01/15 05:36:41;;;;;;;250.63;131.25;;;-1.50;99.90;;;;;;5078291;28;20406;-79
2022/01/15 05:39:09;;;;;;;271.23;136.07;;;-1.50;99.90;;;;;;5077992;28;20036;-78
2022/01/15 05:41:38;;;;;;;257.70;132.13;;;-1.50;99.90;;;;;;5060697;28;20059;-79
2022/01/15 05:44:06;;;;;;;244.65;124.85;;;-1.60;99.90;;;;;;5061094;28;20136;-78
2022/01/15 05:46:36;;;;;;;240.88;125.15;;;-1.50;99.90;;;;;;5059427;28;20049;-78
2022/01/15 05:49:04;;;;;;;234.48;120.00;;;-1.60;99.90;;;;;;5061204;28;20097;-79
2022/01/15 05:51:32;;;;;;;222.95;114.88;;;-1.50;99.90;;;;;;5062487;28;20388;-79
2022/01/15 05:54:01;;;;;;;235.00;120.47;;;-1.40;99.90;;;;;;5080853;28;20040;-79
2022/01/15 05:56:29;;;;;;;247.30;128.90;;;-1.20;99.90;;;;;;5062337;28;20049;-78
2022/01/15 05:58:57;;;;;;;267.83;138.90;;;-1.20;99.90;;;;;;5077453;28;20411;-78
2022/01/15 06:01:24;;;;;;;274.85;141.80;;;-1.10;99.90;;;;;;5059542;28;20400;-78
2022/01/15 06:03:53;;;;;;;306.98;152.13;;;-1.10;99.90;;;;;;5058738;28;20036;-77
2022/01/15 06:06:21;;;;;;;311.17;150.65;;;-1.00;99.90;;;;;;5062086;28;20054;-78
2022/01/15 06:08:48;;;;;;;294.27;140.73;;;-1.00;99.90;;;;;;5078420;28;20064;-79
2022/01/15 06:11:17;;;;;;;311.83;155.75;;;-1.00;99.90;;;;;;5079590;28;20419;-77
2022/01/15 06:13:45;;;;;;;268.25;135.57;;;-0.90;99.90;;;;;;5076652;28;20053;-79
2022/01/15 06:16:13;;;;;;;247.68;127.90;;;-0.80;99.90;;;;;;5079331;28;20460;-79
2022/01/15 06:18:40;;;;;;;308.55;150.43;;;-0.80;99.90;;;;;;5080896;28;20059;-80
2022/01/15 06:21:09;;;;;;;300.77;143.88;;;-0.70;99.90;;;;;;5080090;28;20051;-79
2022/01/15 06:23:37;;;;;;;282.63;138.98;;;-0.70;99.90;;;;;;5094966;28;20040;-78
2022/01/15 06:26:04;;;;;;;287.35;144.02;;;-0.70;99.90;;;;;;5061576;28;20044;-78
2022/01/15 06:28:32;;;;;;;303.30;152.32;;;-0.70;99.90;;;;;;5079801;28;20123;-80
2022/01/15 06:30:59;;;;;;;298.15;146.02;;;-0.50;99.90;;;;;;5080399;28;20131;-78
2022/01/15 06:33:27;;;;;;;268.30;136.20;;;-0.50;99.90;;;;;;5082528;28;20526;-79
2022/01/15 06:35:54;;;;;;;340.65;163.35;;;-0.40;99.90;;;;;;5085597;28;20113;-79
2022/01/15 06:38:23;;;;;;;284.15;142.68;;;-0.40;99.90;;;;;;5081339;28;20044;-80
2022/01/15 06:40:51;;;;;;;287.05;144.23;;;-0.30;99.90;;;;;;5094796;28;20412;-79
2022/01/15 06:43:18;;;;;;;286.65;142.38;;;-0.30;99.90;;;;;;5080941;28;20056;-79
2022/01/15 06:45:46;;;;;;;269.85;132.93;;;-0.30;99.90;;;;;;5086470;28;20503;-78
2022/01/15 06:48:13;;;;;;;243.60;128.68;;;-0.20;99.90;;;;;;5080141;28;20547;-78
2022/01/15 06:50:42;;;;;;;296.67;150.57;;;-0.20;99.90;;;;;;5079043;28;20036;-80
2022/01/15 06:53:11;;;;;;;324.80;165.30;;;-0.20;99.90;;;;;;5077225;28;20044;-79
2022/01/15 06:55:40;;;;;;;290.90;148.50;;;-0.10;99.90;;;;;;5062179;28;20040;-77
2022/01/15 06:58:08;;;;;;;298.88;147.15;;;0.10;99.90;;;;;;5081547;28;20041;-80
2022/01/15 07:00:35;;;;;;;294.63;151.52;;;0.10;99.90;;;;;;5066251;28;20048;-80
2022/01/15 07:03:02;;;;;;;323.13;161.77;;;0.10;99.90;;;;;;5083664;28;20068;-82
2022/01/15 07:05:30;;;;;;;347.23;176.05;;;0.20;99.90;;;;;;5082621;28;20112;-81
2022/01/15 07:07:57;;;;;;;334.83;170.63;;;0.30;99.90;;;;;;5085022;28;20108;-80
2022/01/15 07:10:25;;;;;;;330.23;170.63;;;0.30;99.90;;;;;;5098698;28;20395;-78
2022/01/15 07:12:54;;;;;;;342.15;184.98;;;0.40;99.90;;;;;;5086146;28;20044;-79
2022/01/15 07:15:22;;;;;;;390.13;215.93;;;0.40;99.90;;;;;;5078974;28;20044;-80
2022/01/15 07:17:50;;;;;;;323.83;175.25;;;0.50;99.90;;;;;;5078871;28;20046;-78
2022/01/15 07:20:20;;;;;;;269.95;143.48;;;0.60;99.90;;;;;;5093919;28;20047;-80
2022/01/15 07:22:47;;;;;;;279.40;156.15;;;0.60;99.90;;;;;;5096862;28;20075;-79
2022/01/15 07:25:15;;;;;;;298.55;160.48;;;0.60;99.90;;;;;;5101378;28;20582;-80
2022/01/15 07:27:42;;;;;;;313.70;169.88;;;0.60;99.90;;;;;;5090337;28;20522;-81
2022/01/15 07:30:14;;;;;;;300.17;163.25;;;0.60;99.90;;;;;;5106790;28;20048;-81
2022/01/15 07:32:43;;;;;;;323.50;172.82;;;0.60;99.90;;;;;;5100750;28;20075;-80
2022/01/15 07:35:11;;;;;;;350.63;187.65;;;0.70;99.90;;;;;;5104020;28;20055;-80
2022/01/15 07:37:40;;;;;;;371.98;200.20;;;0.70;99.90;;;;;;5067643;28;20066;-80
2022/01/15 07:40:09;;;;;;;370.40;201.38;;;0.70;99.90;;;;;;5083784;28;20047;-80
2022/01/15 07:42:38;;;;;;;394.80;208.23;;;0.80;99.90;;;;;;5095515;28;20066;-79
2022/01/15 07:45:08;;;;;;;428.42;229.82;;;0.80;99.90;;;;;;5101433;28;20092;-80
2022/01/15 07:47:37;;;;;;;438.25;238.00;;;0.90;99.90;;;;;;5083483;28;20067;-80
2022/01/15 07:50:05;;;;;;;424.40;231.57;;;1.00;99.90;;;;;;5096185;28;20050;-81
2022/01/15 07:52:33;;;;;;;435.20;242.52;;;1.00;99.90;;;;;;5078485;28;20064;-79
2022/01/15 07:55:01;;;;;;;399.70;215.25;;;1.00;99.90;;;;;;5077611;28;20046;-79
2022/01/15 07:57:29;;;;;;;395.85;216.85;;;1.10;99.90;;;;;;5060779;28;20078;-79
2022/01/15 07:59:56;;;;;;;395.35;217.77;;;1.30;99.90;;;;;;5060185;28;20048;-79
2022/01/15 08:02:25;;;;;;;351.35;195.07;;;1.40;99.90;;;;;;5078552;28;20127;-79
2022/01/15 08:04:53;;;;;;;339.95;184.20;;;1.50;99.90;;;;;;5059121;28;20183;-78
2022/01/15 08:07:21;;;;;;;338.90;179.40;;;1.70;99.90;;;;;;5061799;28;20044;-79
2022/01/15 08:09:48;;;;;;;368.98;202.88;;;1.70;99.90;;;;;;5075843;28;20127;-79
2022/01/15 08:12:19;;;;;;;383.50;214.63;;;1.80;99.90;;;;;;5076838;28;20032;-78
2022/01/15 08:14:47;;;;;;;394.33;214.63;;;1.90;99.90;;;;;;5059210;28;20048;-78
2022/01/15 08:17:14;;;;;;;402.70;216.35;;;2.00;99.90;;;;;;5058061;28;20060;-80
2022/01/15 08:19:42;;;;;;;380.85;204.77;;;2.00;99.90;;;;;;5078439;28;20040;-78
2022/01/15 08:22:11;;;;;;;380.02;208.80;;;2.10;99.90;;;;;;5080053;28;20044;-79
2022/01/15 08:24:38;;;;;;;371.90;210.05;;;2.20;99.90;;;;;;5086313;28;20044;-79
2022/01/15 08:27:06;;;;;;;426.38;228.43;;;2.20;99.90;;;;;;5083671;28;20039;-79
2022/01/15 08:29:33;;;;;;;416.35;226.73;;;2.30;99.90;;;;;;5075077;28;20040;-78
2022/01/15 08:32:01;;;;;;;417.88;226.15;;;2.30;99.90;;;;;;5075183;28;20411;-80
2022/01/15 08:34:28;;;;;;;437.60;229.00;;;2.40;99.90;;;;;;5075330;28;20393;-79
2022/01/15 08:36:56;;;;;;;418.05;222.70;;;2.50;99.90;;;;;;5053541;28;20122;-78
2022/01/15 08:39:25;;;;;;;398.70;219.98;;;2.50;99.90;;;;;;5060757;28;20049;-79
2022/01/15 08:41:53;;;;;;;402.85;224.65;;;2.60;99.90;;;;;;5087773;28;20040;-77
2022/01/15 08:44:23;;;;;;;422.83;232.30;;;2.50;99.90;;;;;;5059134;28;20094;-78
2022/01/15 08:46:51;;;;;;;417.15;243.45;;;2.60;99.90;;;;;;5074605;28;20044;-78
2022/01/15 08:49:19;;;;;;;440.63;250.23;;;2.70;99.90;;;;;;5074221;28;20044;-78
2022/01/15 08:51:47;;;;;;;455.85;259.85;;;2.70;99.90;;;;;;5057417;28;20091;-78
2022/01/15 08:54:15;;;;;;;433.00;255.15;;;2.80;99.90;;;;;;5079001;28;20462;-76
2022/01/15 08:56:44;;;;;;;429.27;255.82;;;2.80;99.90;;;;;;5077680;28;20055;-79
2022/01/15 08:59:11;;;;;;;435.00;252.77;;;2.90;99.90;;;;;;5068525;28;20071;-79
2022/01/15 09:01:39;;;;;;;458.83;269.00;;;3.00;99.90;;;;;;5058384;28;20070;-79
2022/01/15 09:04:06;;;;;;;440.92;264.55;;;3.00;99.90;;;;;;5075697;28;20127;-78
2022/01/15 09:06:34;;;;;;;427.02;263.38;;;3.10;99.90;;;;;;5074082;28;20074;-77
2022/01/15 09:09:01;;;;;;;431.20;264.83;;;3.10;99.90;;;;;;5078321;28;20048;-79
2022/01/15 09:11:29;;;;;;;422.80;251.77;;;3.20;99.90;;;;;;5077440;28;20048;-77
2022/01/15 09:13:58;;;;;;;424.98;255.13;;;3.20;99.90;;;;;;5076694;28;20044;-79
2022/01/15 09:16:26;;;;;;;441.13;268.42;;;3.40;99.90;;;;;;5063640;28;20044;-78
2022/01/15 09:18:55;;;;;;;454.92;276.83;;;3.40;99.90;;;;;;5057629;28;20033;-79
2022/01/15 09:21:23;;;;;;;471.48;281.92;;;3.50;99.90;;;;;;5058113;28;20572;-79
2022/01/15 09:23:50;;;;;;;487.30;290.83;;;3.50;99.90;;;;;;5058725;28;20113;-79
2022/01/15 09:26:23;;;;;;;485.08;293.13;;;3.60;99.90;;;;;;5082075;28;20044;-79
2022/01/15 09:31:48;;;;;;;496.10;291.17;;;3.70;99.90;;;;;;5004464;28;20064;-78
2022/01/15 09:34:16;;;;;;;496.08;295.65;;;3.80;99.90;;;;;;5045603;28;20143;-78
2022/01/15 09:36:44;;;;;;;506.10;301.88;;;3.80;99.90;;;;;;5095793;28;20113;-78
2022/01/15 09:39:12;;;;;;;530.30;317.60;;;3.80;99.90;;;;;;5059165;28;20044;-80
2022/01/15 09:41:46;;;;;;;548.40;328.63;;;3.80;99.90;;;;;;5076744;28;20044;-79
2022/01/15 09:44:14;;;;;;;547.33;323.25;;;3.90;99.90;;;;;;5097291;28;20051;-79
2022/01/15 09:46:42;;;;;;;531.13;317.98;;;4.00;99.90;;;;;;5090321;28;20099;-77
2022/01/15 09:49:13;;;;;;;501.00;303.00;;;4.00;99.90;;;;;;5082790;28;20116;-79
2022/01/15 09:51:41;;;;;;;548.58;330.08;;;3.90;99.90;;;;;;5095378;28;20071;-76
2022/01/15 09:54:08;;;;;;;546.53;329.17;;;4.00;99.90;;;;;;5073319;28;20136;-79
2022/01/15 09:56:36;;;;;;;547.03;333.08;;;4.10;99.90;;;;;;5082997;28;20202;-79
2022/01/15 09:59:03;;;;;;;551.20;341.10;;;4.20;99.90;;;;;;5096680;28;20044;-80
2022/01/15 10:01:32;;;;;;;553.45;337.50;;;4.30;99.90;;;;;;5071945;28;20063;-79
2022/01/15 10:04:00;;;;;;;554.08;343.80;;;4.50;99.90;;;;;;5085295;28;20135;-78
2022/01/15 10:06:29;;;;;;;546.22;337.10;;;4.60;99.90;;;;;;5087910;28;20504;-78
2022/01/15 10:09:01;;;;;;;556.75;343.83;;;4.80;99.90;;;;;;5088270;28;20063;-77
2022/01/15 10:11:44;;;;;;;564.25;348.33;;;4.80;99.90;;;;;;5089135;28;20041;-79
2022/01/15 10:14:28;;;;;;;566.00;346.50;;;4.90;99.90;;;;;;5090972;28;20029;-79
2022/01/15 10:16:57;;;;;;;570.95;352.17;;;5.00;99.90;;;;;;5069147;28;20100;-78
2022/01/15 10:19:27;;;;;;;574.35;353.50;;;5.10;99.90;;;;;;5068944;28;20064;-77
2022/01/15 10:22:11;;;;;;;581.05;363.55;;;5.10;99.90;;;;;;5069823;28;20070;-78
2022/01/15 10:24:40;;;;;;;602.67;380.27;;;5.20;99.90;;;;;;5083772;28;20048;-76
2022/01/15 10:27:23;;;;;;;626.90;393.65;;;5.20;99.90;;;;;;5058985;28;20036;-78
2022/01/15 10:29:56;;;;;;;601.72;372.70;;;5.10;99.90;;;;;;5063129;28;20055;-77
2022/01/15 10:32:25;;;;;;;601.53;375.25;;;5.10;99.90;;;;;;5084652;28;20090;-77
2022/01/15 10:34:53;;;;;;;604.45;375.05;;;5.10;99.90;;;;;;5089117;28;20060;-77
2022/01/15 10:37:24;;;;;;;608.58;381.73;;;5.10;99.90;;;;;;5098982;28;20051;-79
2022/01/15 10:40:02;;;;;;;611.78;383.55;;;5.10;99.90;;;;;;5060849;28;20057;-79
2022/01/15 10:42:32;;;;;;;611.15;378.50;;;5.10;99.90;;;;;;5077336;28;20068;-79
2022/01/15 10:45:07;;;;;;;599.75;374.90;;;5.10;99.90;;;;;;5066390;28;20041;-79
2022/01/15 10:47:42;;;;;;;603.47;377.25;;;5.10;99.90;;;;;;5081044;28;20487;-80
2022/01/15 10:50:18;;;;;;;604.72;379.00;;;5.20;99.90;;;;;;5088404;28;20040;-79
2022/01/15 10:52:48;;;;;;;596.05;372.60;;;5.20;99.90;;;;;;5088714;28;20047;-79
2022/01/15 10:55:17;;;;;;;593.80;372.55;;;5.30;99.90;;;;;;5065776;28;20108;-81
2022/01/15 10:57:46;;;;;;;603.42;380.40;;;5.40;99.90;;;;;;5085646;28;20036;-80
2022/01/15 11:00:20;;;;;;;598.22;382.05;;;5.50;99.90;;;;;;5084030;28;20071;-79
2022/01/15 11:02:50;;;;;;;607.80;383.02;;;5.50;99.90;;;;;;5046575;28;20101;-79
2022/01/15 11:05:29;;;;;;;602.28;379.27;;;5.50;99.90;;;;;;5077342;28;20051;-80
2022/01/15 11:08:10;;;;;;;615.95;390.48;;;5.60;99.90;;;;;;5076239;28;20135;-79
2022/01/15 11:10:52;;;;;;;618.97;398.35;;;5.60;99.90;;;;;;5081785;28;20143;-77
2022/01/15 11:13:22;;;;;;;646.50;412.65;;;5.60;99.90;;;;;;5090261;28;20060;-76
2022/01/15 11:15:54;;;;;;;652.35;415.75;;;5.60;99.90;;;;;;5084324;28;20134;-78
2022/01/15 11:18:23;;;;;;;677.50;435.05;;;5.60;99.90;;;;;;5059668;28;20461;-79
2022/01/15 11:20:55;;;;;;;712.22;462.33;;;5.70;99.90;;;;;;5060054;28;20052;-79
2022/01/15 11:23:27;;;;;;;731.38;477.10;;;5.60;99.90;;;;;;5080958;28;20068;-79
2022/01/15 11:25:56;;;;;;;740.15;478.98;;;5.70;99.90;;;;;;5083641;28;20044;-78
2022/01/15 11:28:25;;;;;;;731.65;477.45;;;5.70;99.90;;;;;;5060332;28;20098;-78
2022/01/15 11:30:56;;;;;;;744.88;484.65;;;5.80;99.90;;;;;;5058344;28;20116;-77
2022/01/15 11:33:29;;;;;;;739.33;481.13;;;5.80;99.90;;;;;;5076106;28;20075;-78
2022/01/15 11:35:56;;;;;;;733.22;477.73;;;5.80;99.90;;;;;;5077581;28;20044;-79
2022/01/15 11:38:43;;;;;;;713.47;471.75;;;5.80;99.90;;;;;;5077769;28;20067;-78
2022/01/15 11:41:37;;;;;;;723.05;472.15;;;6.00;99.90;;;;;;5060888;28;20048;-79
2022/01/15 11:44:06;;;;;;;696.33;454.08;;;6.20;99.90;;;;;;5093938;28;20074;-79
2022/01/15 11:46:39;;;;;;;714.25;468.77;;;6.40;99.90;;;;;;5059576;28;20102;-80
2022/01/15 11:49:33;;;;;;;721.58;480.42;;;6.50;99.90;;;;;;5059508;28;20051;-80
2022/01/15 11:52:42;;;;;;;689.78;459.88;;;6.60;99.90;;;;;;5077794;28;20128;-80
2022/01/15 11:55:24;;;;;;;697.33;463.58;;;6.70;99.90;;;;;;5075800;28;20048;-78
2022/01/15 11:58:02;;;;;;;704.45;474.17;;;7.00;99.90;;;;;;5074926;28;20454;-79
2022/01/15 12:00:32;;;;;;;671.03;446.90;;;7.20;99.90;;;;;;5058065;28;20049;-78
2022/01/15 12:03:05;;;;;;;632.72;417.10;;;7.20;99.90;;;;;;5075634;28;20048;-79
2022/01/15 12:05:34;;;;;;;606.88;393.88;;;7.40;99.90;;;;;;5054848;28;20053;-78
2022/01/15 12:08:36;;;;;;;579.15;373.20;;;7.60;99.90;;;;;;5055137;28;20481;-79
2022/01/15 12:11:07;;;;;;;601.85;393.08;;;7.70;99.90;;;;;;5053941;28;20053;-78
2022/01/15 12:13:51;;;;;;;574.50;367.58;;;7.80;99.90;;;;;;5056025;28;20101;-79
2022/01/15 12:16:39;;;;;;;410.02;260.42;;;7.90;99.90;;;;;;5054483;28;20073;-78
2022/01/15 12:19:08;;;;;;;235.48;135.25;;;8.00;99.90;;;;;;5053791;28;20476;-79
2022/01/15 12:21:57;;;;;;;206.48;126.57;;;8.00;99.90;;;;;;5053703;28;20060;-79
2022/01/15 12:24:51;;;;;;;254.25;143.18;;;8.10;99.90;;;;;;5055506;28;20098;-78
2022/01/15 12:27:25;;;;;;;226.82;129.10;;;7.90;99.90;;;;;;5056287;28;20075;-78
2022/01/15 12:30:10;;;;;;;207.95;119.57;;;7.70;99.90;;;;;;5055357;28;20045;-78
2022/01/15 12:32:41;;;;;;;216.90;122.53;;;7.60;99.90;;;;;;5053340;28;20056;-77
2022/01/15 12:35:15;;;;;;;219.85;128.50;;;7.50;99.90;;;;;;5053566;28;20348;-78
2022/01/15 12:37:53;;;;;;;238.50;139.82;;;7.40;99.90;;;;;;5053872;28;20053;-78